Time;durP1;ratioP1;P1;durP2;ratioP2;P2;SDS_P1;SDS_P2;PMS_P1;PMS_P2;Temp;Humidity;BMP_temperature;BMP_pressure;BME280_temperature;BME280_humidity;BME280_pressure;Samples;Min_cycle;Max_cycle;Signal;HPM_P1;HPM_P2
2022/03/22 00:00:44;;;;;;;;;;;6.80;54.60;;;;;;4991410;28;20034;-56
2022/03/22 00:03:10;;;;;;;14.50;10.55;;;6.80;55.00;;;;;;4991794;28;20000;-57
2022/03/22 00:05:40;;;;;;;16.80;11.07;;;6.70;54.90;;;;;;4992077;28;20030;-57
2022/03/22 00:08:06;;;;;;;15.15;10.25;;;6.70;55.20;;;;;;4992866;28;20037;-58
2022/03/22 00:10:31;;;;;;;;;;;6.60;56.10;;;;;;4991675;28;20042;-56
2022/03/22 00:12:57;;;;;;;23.75;11.52;;;6.50;56.00;;;;;;4991857;28;20443;-57
2022/03/22 00:15:22;;;;;;;17.55;10.45;;;6.50;56.20;;;;;;4989231;28;20032;-56
2022/03/22 00:17:48;;;;;;;21.40;11.75;;;6.40;56.50;;;;;;4990805;28;20038;-57
2022/03/22 00:20:15;;;;;;;13.00;10.10;;;6.40;56.90;;;;;;4990470;28;20050;-55
2022/03/22 00:22:41;;;;;;;16.40;10.50;;;6.40;57.10;;;;;;4991136;28;20034;-56
2022/03/22 00:25:07;;;;;;;16.15;11.77;;;6.30;57.30;;;;;;4990335;28;20033;-56
2022/03/22 00:27:50;;;;;;;16.17;11.00;;;6.30;58.00;;;;;;4991570;28;20029;-56
2022/03/22 00:30:17;;;;;;;16.58;10.73;;;6.20;58.80;;;;;;4988405;28;20516;-56
2022/03/22 00:32:43;;;;;;;14.88;10.48;;;6.20;59.30;;;;;;4988413;28;20034;-54
2022/03/22 00:35:08;;;;;;;18.90;11.60;;;6.20;59.30;;;;;;4990143;28;20056;-56
2022/03/22 00:37:37;;;;;;;18.65;11.25;;;6.20;59.90;;;;;;4990815;28;20065;-57
2022/03/22 00:40:08;;;;;;;17.65;12.30;;;6.20;60.50;;;;;;4989668;28;20037;-56
2022/03/22 00:42:33;;;;;;;21.38;13.45;;;6.20;61.80;;;;;;4990325;28;20095;-56
2022/03/22 00:44:59;;;;;;;23.02;14.40;;;6.10;62.80;;;;;;4990085;28;20026;-55
2022/03/22 00:47:25;;;;;;;21.15;13.43;;;6.10;63.40;;;;;;4989966;28;20113;-57
2022/03/22 00:49:50;;;;;;;;;;;6.00;64.50;;;;;;4990611;28;20049;-57
2022/03/22 00:52:16;;;;;;;20.58;13.10;;;6.00;65.00;;;;;;4988973;28;20359;-58
2022/03/22 00:54:41;;;;;;;20.45;13.65;;;5.90;66.50;;;;;;4990126;28;20022;-55
2022/03/22 00:57:07;;;;;;;21.23;14.15;;;5.90;66.60;;;;;;4990185;28;20037;-55
2022/03/22 01:02:17;;;;;;;23.38;13.55;;;5.80;68.40;;;;;;5047393;28;20053;-50
2022/03/22 01:04:43;;;;;;;24.27;15.63;;;5.80;69.20;;;;;;5043645;28;20037;-53
2022/03/22 01:07:08;;;;;;;21.73;13.90;;;5.70;70.50;;;;;;5046555;28;20469;-55
2022/03/22 01:09:34;;;;;;;23.17;13.82;;;5.70;70.50;;;;;;5031690;28;20052;-53
2022/03/22 01:11:59;;;;;;;20.67;13.13;;;5.70;70.90;;;;;;5032991;28;20036;-50
2022/03/22 01:14:27;;;;;;;21.30;14.60;;;5.60;70.80;;;;;;5031484;28;20025;-51
2022/03/22 01:16:54;;;;;;;23.25;14.23;;;5.60;72.20;;;;;;5029213;28;20494;-53
2022/03/22 01:19:21;;;;;;;20.30;13.77;;;5.50;71.40;;;;;;5029990;28;20041;-52
2022/03/22 01:21:47;;;;;;;22.67;13.27;;;5.50;72.50;;;;;;5031099;28;20040;-51
2022/03/22 01:24:12;;;;;;;;;;;5.50;73.80;;;;;;5030804;28;20995;-49
2022/03/22 01:26:38;;;;;;;18.50;12.43;;;5.50;73.90;;;;;;5027906;28;19962;-51
2022/03/22 01:29:04;;;;;;;22.50;13.43;;;5.50;73.70;;;;;;5035336;28;20080;-54
2022/03/22 01:31:29;;;;;;;23.05;12.65;;;5.40;74.80;;;;;;5032206;28;20036;-50
2022/03/22 01:33:55;;;;;;;17.63;12.60;;;5.40;75.90;;;;;;5032873;28;20056;-52
2022/03/22 01:36:21;;;;;;;18.52;12.88;;;5.50;75.90;;;;;;5029815;28;20482;-53
2022/03/22 01:38:47;;;;;;;18.05;12.25;;;5.40;75.50;;;;;;5035534;28;20033;-49
2022/03/22 01:41:13;;;;;;;23.23;14.00;;;5.40;76.60;;;;;;5033054;28;20642;-51
2022/03/22 01:43:39;;;;;;;;;;;5.40;76.60;;;;;;5029867;28;20061;-51
2022/03/22 01:46:04;;;;;;;18.05;12.88;;;5.40;76.90;;;;;;5029076;28;20424;-54
2022/03/22 01:48:30;;;;;;;23.88;14.98;;;5.40;77.30;;;;;;5030172;28;20021;-49
2022/03/22 01:50:55;;;;;;;26.75;14.88;;;5.30;77.60;;;;;;5038575;28;20162;-51
2022/03/22 01:53:22;;;;;;;22.45;13.45;;;5.30;78.40;;;;;;5030173;28;20475;-51
2022/03/22 01:55:47;;;;;;;22.17;14.52;;;5.30;78.50;;;;;;5033555;28;20073;-52
2022/03/22 01:58:14;;;;;;;20.27;13.05;;;5.30;78.70;;;;;;5028568;28;20434;-48
2022/03/22 02:00:40;;;;;;;16.45;12.07;;;5.30;79.20;;;;;;5030748;28;20041;-52
2022/03/22 02:06:10;;;;;;;20.63;12.18;;;5.20;80.00;;;;;;5003517;28;19919;-49
2022/03/22 02:08:35;;;;;;;18.10;12.52;;;5.10;81.00;;;;;;5004115;28;20018;-53
2022/03/22 02:11:01;;;;;;;21.90;14.85;;;5.00;81.70;;;;;;5015109;28;20040;-51
2022/03/22 02:13:28;;;;;;;20.27;13.63;;;5.00;82.30;;;;;;5036002;28;20558;-50
2022/03/22 02:15:56;;;;;;;18.38;12.95;;;5.00;82.60;;;;;;5034347;28;20088;-50
2022/03/22 02:18:24;;;;;;;23.15;13.88;;;5.10;83.50;;;;;;5029506;28;20508;-52
2022/03/22 02:20:49;;;;;;;24.92;13.05;;;5.10;83.50;;;;;;5028462;28;20465;-49
2022/03/22 02:23:50;;;;;;;21.10;14.25;;;5.10;83.30;;;;;;5028503;28;20033;-54
2022/03/22 02:26:17;;;;;;;22.30;12.80;;;5.10;83.70;;;;;;5033118;28;20033;-49
2022/03/22 02:28:43;;;;;;;20.85;13.45;;;5.10;83.20;;;;;;5036954;28;20099;-53
2022/03/22 02:31:09;;;;;;;23.10;12.73;;;5.10;83.30;;;;;;5032458;28;20548;-52
2022/03/22 02:33:34;;;;;;;20.90;13.38;;;5.00;84.00;;;;;;5028413;28;20041;-51
2022/03/22 02:36:00;;;;;;;32.95;19.63;;;4.90;84.30;;;;;;5035076;28;20090;-54
2022/03/22 02:38:26;;;;;;;31.02;16.27;;;4.80;84.80;;;;;;5028225;28;20033;-51
2022/03/22 02:40:52;;;;;;;23.35;15.05;;;4.80;85.60;;;;;;5033084;28;20041;-49
2022/03/22 02:43:18;;;;;;;23.13;15.13;;;4.70;86.00;;;;;;5032467;28;20033;-49
2022/03/22 02:45:44;;;;;;;25.38;14.55;;;4.70;86.10;;;;;;5034878;28;20030;-51
2022/03/22 02:48:11;;;;;;;28.15;14.27;;;4.70;86.20;;;;;;5033857;28;20018;-49
2022/03/22 02:50:37;;;;;;;31.05;17.40;;;4.60;86.40;;;;;;5027219;28;20029;-49
2022/03/22 02:53:02;;;;;;;19.10;13.10;;;4.60;86.50;;;;;;5027202;28;20042;-49
2022/03/22 02:55:28;;;;;;;24.10;14.40;;;4.60;87.10;;;;;;5026524;28;20127;-48
2022/03/22 02:57:54;;;;;;;20.85;13.93;;;4.50;87.40;;;;;;5027346;28;20056;-48
2022/03/22 03:00:20;;;;;;;28.15;14.07;;;4.60;87.80;;;;;;5027317;28;20033;-54
2022/03/22 03:02:51;;;;;;;28.05;17.45;;;4.50;88.30;;;;;;5027595;28;20076;-51
2022/03/22 03:05:18;;;;;;;22.98;15.18;;;4.60;88.30;;;;;;5029576;28;20021;-49
2022/03/22 03:07:44;;;;;;;25.33;14.30;;;4.60;88.70;;;;;;5036745;28;20040;-52
2022/03/22 03:10:11;;;;;;;28.60;18.67;;;4.60;88.80;;;;;;5030128;28;20025;-55
2022/03/22 03:12:37;;;;;;;21.98;13.15;;;4.60;88.80;;;;;;5032983;28;20088;-55
2022/03/22 03:15:04;;;;;;;22.67;15.10;;;4.60;90.20;;;;;;5030632;28;20024;-51
2022/03/22 03:17:29;;;;;;;20.10;13.93;;;4.50;90.00;;;;;;5027508;28;20402;-52
2022/03/22 03:19:55;;;;;;;25.80;16.50;;;4.50;90.30;;;;;;5026070;28;20025;-53
2022/03/22 03:22:21;;;;;;;24.20;14.90;;;4.40;90.10;;;;;;5029875;28;20029;-54
2022/03/22 03:24:47;;;;;;;26.20;15.77;;;4.30;90.50;;;;;;5040556;28;21056;-53
2022/03/22 03:27:12;;;;;;;19.73;13.23;;;4.20;90.90;;;;;;5034183;28;20029;-51
2022/03/22 03:29:38;;;;;;;22.90;14.52;;;4.10;91.20;;;;;;5027294;28;20021;-55
2022/03/22 03:32:04;;;;;;;20.02;12.48;;;4.10;91.30;;;;;;5029334;28;20060;-53
2022/03/22 03:34:29;;;;;;;21.73;14.48;;;4.10;91.50;;;;;;5032472;28;20111;-49
2022/03/22 03:36:55;;;;;;;25.80;15.30;;;4.10;91.60;;;;;;5033784;28;20439;-54
2022/03/22 03:39:20;;;;;;;23.23;14.25;;;4.10;91.50;;;;;;5035846;28;20064;-48
2022/03/22 03:41:59;;;;;;;27.52;16.05;;;4.00;91.60;;;;;;5033629;28;20041;-55
2022/03/22 03:47:12;;;;;;;21.13;13.02;;;3.90;92.10;;;;;;5030575;28;20529;-53
2022/03/22 03:49:39;;;;;;;23.25;14.60;;;3.90;92.10;;;;;;5027746;28;20044;-49
2022/03/22 03:52:26;;;;;;;21.85;13.85;;;3.80;92.20;;;;;;5029889;28;20039;-51
2022/03/22 03:54:52;;;;;;;;;;;3.80;92.30;;;;;;5031937;28;20037;-48
2022/03/22 03:57:18;;;;;;;23.23;13.85;;;3.80;92.30;;;;;;5030648;28;20294;-49
2022/03/22 03:59:44;;;;;;;28.05;15.60;;;3.70;92.30;;;;;;5030384;28;20045;-52
2022/03/22 04:02:10;;;;;;;22.13;13.48;;;3.70;92.40;;;;;;5031944;28;20107;-49
2022/03/22 04:04:38;;;;;;;21.52;14.23;;;3.70;92.50;;;;;;5029957;28;20380;-52
2022/03/22 04:07:05;;;;;;;22.13;13.23;;;3.70;92.50;;;;;;5033329;28;20410;-52
2022/03/22 04:09:32;;;;;;;19.27;12.88;;;3.70;92.90;;;;;;5031169;28;20399;-52
2022/03/22 04:11:58;;;;;;;27.55;16.02;;;3.60;93.00;;;;;;5036618;28;20420;-53
2022/03/22 04:14:23;;;;;;;23.30;15.48;;;3.70;93.00;;;;;;5033035;28;20037;-52
2022/03/22 04:16:50;;;;;;;29.17;15.40;;;3.70;92.90;;;;;;5031275;28;20037;-52
2022/03/22 04:19:16;;;;;;;24.90;13.95;;;3.70;93.20;;;;;;5031781;28;20037;-52
2022/03/22 04:21:42;;;;;;;19.35;13.43;;;3.70;92.90;;;;;;5029416;28;20487;-50
2022/03/22 04:24:09;;;;;;;27.65;15.85;;;3.60;93.10;;;;;;5031370;28;20075;-53
2022/03/22 04:26:36;;;;;;;24.70;13.63;;;3.60;92.90;;;;;;5030909;28;20051;-55
2022/03/22 04:34:32;;;;;;;28.10;14.68;;;3.60;92.90;;;;;;5036401;28;20399;-54
2022/03/22 04:36:58;;;;;;;24.08;14.32;;;3.60;93.00;;;;;;5028853;28;20053;-55
2022/03/22 04:39:25;;;;;;;20.17;13.50;;;3.60;93.20;;;;;;5029595;28;20033;-50
2022/03/22 04:41:51;;;;;;;28.63;14.30;;;3.50;93.30;;;;;;5028729;28;20033;-52
2022/03/22 04:44:18;;;;;;;19.98;13.68;;;3.50;93.30;;;;;;5034660;28;20485;-56
2022/03/22 04:46:43;;;;;;;;;;;3.50;93.30;;;;;;5039124;28;20033;-49
2022/03/22 04:49:09;;;;;;;19.67;12.52;;;3.40;93.30;;;;;;5039753;28;19904;-51
2022/03/22 04:57:03;;;;;;;66.15;32.60;;;3.50;93.50;;;;;;5037784;28;20037;-48
2022/03/22 04:59:29;;;;;;;89.63;48.38;;;3.40;93.50;;;;;;5029383;28;20597;-51
2022/03/22 05:01:55;;;;;;;35.53;19.85;;;3.40;93.70;;;;;;5030381;28;20040;-51
2022/03/22 05:04:21;;;;;;;27.17;15.50;;;3.50;93.60;;;;;;5030611;28;20367;-54
2022/03/22 05:06:47;;;;;;;28.85;17.25;;;3.40;93.60;;;;;;5030221;28;20029;-52
2022/03/22 05:09:13;;;;;;;23.13;14.18;;;3.40;93.60;;;;;;5029570;28;20112;-50
2022/03/22 05:11:39;;;;;;;26.45;14.82;;;3.40;93.80;;;;;;5028736;28;20028;-48
2022/03/22 05:14:04;;;;;;;27.35;15.57;;;3.40;93.70;;;;;;5030717;28;20133;-50
2022/03/22 05:16:36;;;;;;;40.90;21.77;;;3.40;93.70;;;;;;5030904;28;20053;-48
2022/03/22 05:19:04;;;;;;;35.08;22.25;;;3.40;93.70;;;;;;5030322;28;20029;-51
2022/03/22 05:21:30;;;;;;;29.98;19.27;;;3.40;93.70;;;;;;5028864;28;20116;-51
2022/03/22 05:23:55;;;;;;;40.97;23.40;;;3.40;93.70;;;;;;5030054;28;20055;-51
2022/03/22 05:26:21;;;;;;;44.95;23.95;;;3.40;93.60;;;;;;5029460;28;20084;-53
2022/03/22 05:28:47;;;;;;;32.92;20.13;;;3.40;93.70;;;;;;5030984;28;20715;-51
2022/03/22 05:31:14;;;;;;;;;;;3.50;93.80;;;;;;5030033;28;20033;-47
2022/03/22 05:33:40;;;;;;;30.05;15.82;;;3.50;93.60;;;;;;5029187;28;19963;-48
2022/03/22 05:36:06;;;;;;;26.55;16.48;;;3.50;93.60;;;;;;5030955;28;20333;-51
2022/03/22 05:38:32;;;;;;;27.30;15.23;;;3.50;93.70;;;;;;5028090;28;20033;-47
2022/03/22 05:40:57;;;;;;;26.33;16.88;;;3.60;93.60;;;;;;5029849;28;20029;-52
2022/03/22 05:43:26;;;;;;;22.48;14.77;;;3.60;93.60;;;;;;5029583;28;20037;-53
2022/03/22 05:45:52;;;;;;;21.85;13.82;;;3.60;93.60;;;;;;5029626;28;20128;-50
2022/03/22 05:48:21;;;;;;;22.27;15.57;;;3.60;93.60;;;;;;5036258;28;20120;-55
2022/03/22 05:50:47;;;;;;;28.27;18.15;;;3.60;93.60;;;;;;5032229;28;20060;-49
2022/03/22 05:53:14;;;;;;;25.30;15.20;;;3.60;93.80;;;;;;5031622;28;20391;-52
2022/03/22 05:55:40;;;;;;;24.73;14.48;;;3.60;93.70;;;;;;5035846;28;20025;-48
2022/03/22 05:58:05;;;;;;;;;;;3.70;93.80;;;;;;5035600;28;20043;-47
2022/03/22 06:00:31;;;;;;;26.15;15.27;;;3.70;93.80;;;;;;5030518;28;19913;-51
2022/03/22 06:02:57;;;;;;;25.67;15.65;;;3.70;93.90;;;;;;5030429;28;20036;-51
2022/03/22 06:05:23;;;;;;;;;;;3.70;94.00;;;;;;5030027;28;20033;-51
2022/03/22 06:07:49;;;;;;;28.10;14.93;;;3.70;94.00;;;;;;5029788;28;19913;-51
2022/03/22 06:10:15;;;;;;;;;;;3.70;94.00;;;;;;5036618;28;20028;-49
2022/03/22 06:12:51;;;;;;;21.75;13.18;;;3.70;93.80;;;;;;5028122;28;19912;-51
2022/03/22 06:15:18;;;;;;;;;;;3.70;93.90;;;;;;5029948;28;20108;-50
2022/03/22 06:17:50;;;;;;;24.73;15.40;;;3.80;94.00;;;;;;5028810;28;19917;-51
2022/03/22 06:20:20;;;;;;;29.42;16.08;;;3.80;94.00;;;;;;5030187;28;20091;-53
2022/03/22 06:22:46;;;;;;;25.75;16.33;;;3.80;94.00;;;;;;5031058;28;20399;-51
2022/03/22 06:25:13;;;;;;;22.35;15.52;;;3.90;94.00;;;;;;5029749;28;20172;-51
2022/03/22 06:27:39;;;;;;;36.38;17.13;;;4.00;94.10;;;;;;5032651;28;20411;-53
2022/03/22 06:30:37;;;;;;;22.92;14.75;;;4.10;94.00;;;;;;5027356;28;20024;-51
2022/03/22 06:33:22;;;;;;;28.90;16.15;;;4.10;93.90;;;;;;5024082;28;20048;-52
2022/03/22 06:35:47;;;;;;;25.20;14.82;;;4.20;93.90;;;;;;5027047;28;20496;-47
2022/03/22 06:38:13;;;;;;;24.85;13.65;;;4.30;93.90;;;;;;5025602;28;20187;-48
2022/03/22 06:40:39;;;;;;;25.85;15.95;;;4.30;93.90;;;;;;5029493;28;20056;-52
2022/03/22 06:43:08;;;;;;;25.85;15.05;;;4.40;93.90;;;;;;5032428;28;20113;-53
2022/03/22 06:45:34;;;;;;;26.40;15.90;;;4.50;93.70;;;;;;5030521;28;20037;-53
2022/03/22 06:48:00;;;;;;;;;;;4.60;93.70;;;;;;5031775;28;20021;-51
2022/03/22 06:50:26;;;;;;;22.58;14.02;;;4.70;93.70;;;;;;5027530;28;20042;-52
2022/03/22 06:52:52;;;;;;;25.90;15.20;;;4.70;93.40;;;;;;5034497;28;20064;-53
2022/03/22 06:55:22;;;;;;;28.13;14.38;;;4.80;93.40;;;;;;5028092;28;20034;-53
2022/03/22 06:57:50;;;;;;;24.85;15.70;;;4.80;93.20;;;;;;5029005;28;20059;-52
2022/03/22 07:00:16;;;;;;;27.60;15.10;;;4.90;92.60;;;;;;5030262;28;20482;-52
2022/03/22 07:02:41;;;;;;;23.38;12.80;;;5.00;92.60;;;;;;5035045;28;20456;-53
2022/03/22 07:05:08;;;;;;;22.60;14.30;;;5.10;92.60;;;;;;5029841;28;20064;-51
2022/03/22 07:07:35;;;;;;;24.52;15.68;;;5.20;92.30;;;;;;5026850;28;20037;-51
2022/03/22 07:10:01;;;;;;;24.02;14.50;;;5.30;91.60;;;;;;5030322;28;20041;-50
2022/03/22 07:12:26;;;;;;;21.60;14.45;;;5.40;91.50;;;;;;5026267;28;20026;-51
2022/03/22 07:14:52;;;;;;;24.33;13.63;;;5.50;91.10;;;;;;5026488;28;20373;-51
2022/03/22 07:17:18;;;;;;;21.40;13.88;;;5.60;91.00;;;;;;5026373;28;20080;-53
2022/03/22 07:19:43;;;;;;;21.30;14.23;;;5.60;91.20;;;;;;5026485;28;20090;-53
2022/03/22 07:22:10;;;;;;;27.52;14.05;;;5.70;90.80;;;;;;5032812;28;20029;-54
2022/03/22 07:24:36;;;;;;;23.27;14.70;;;5.80;90.70;;;;;;5028799;28;20416;-53
2022/03/22 07:27:02;;;;;;;;;;;5.90;90.00;;;;;;5030831;28;20029;-49
2022/03/22 07:29:28;;;;;;;23.88;13.73;;;6.00;90.60;;;;;;5030999;28;20305;-52
2022/03/22 07:31:56;;;;;;;27.50;13.25;;;6.20;90.20;;;;;;5030218;28;20517;-55
2022/03/22 07:34:22;;;;;;;25.63;14.68;;;6.30;90.20;;;;;;5031368;28;20410;-53
2022/03/22 07:36:51;;;;;;;20.60;13.43;;;6.40;89.80;;;;;;5035643;28;20036;-49
2022/03/22 07:39:16;;;;;;;29.20;15.95;;;6.50;90.40;;;;;;5030553;28;20038;-55
2022/03/22 07:41:43;;;;;;;28.27;18.23;;;6.60;90.10;;;;;;5038582;28;20102;-50
2022/03/22 07:44:12;;;;;;;24.48;14.25;;;6.70;89.60;;;;;;5030731;28;20484;-52
2022/03/22 07:46:37;;;;;;;24.80;15.68;;;6.90;89.40;;;;;;5032974;28;20037;-54
2022/03/22 07:54:31;;;;;;;22.00;13.05;;;7.00;88.30;;;;;;5038752;28;20031;-50
2022/03/22 07:56:57;;;;;;;28.38;15.52;;;7.20;88.00;;;;;;5038854;28;20033;-50
2022/03/22 07:59:25;;;;;;;24.27;14.68;;;7.30;87.90;;;;;;5040049;28;20037;-55
2022/03/22 08:01:51;;;;;;;29.30;15.38;;;7.30;87.60;;;;;;5033174;28;20035;-50
2022/03/22 08:04:17;;;;;;;30.20;14.68;;;7.40;86.60;;;;;;5029426;28;20405;-54
2022/03/22 08:06:43;;;;;;;;;;;7.50;86.00;;;;;;5030002;28;20523;-54
2022/03/22 08:09:08;;;;;;;27.77;14.27;;;7.60;86.00;;;;;;5033413;28;20011;-54
2022/03/22 08:11:34;;;;;;;25.38;13.20;;;7.80;85.80;;;;;;5028778;28;20033;-54
2022/03/22 08:14:01;;;;;;;24.05;14.77;;;7.80;85.30;;;;;;5035159;28;20037;-48
2022/03/22 08:16:27;;;;;;;26.83;14.77;;;8.00;85.40;;;;;;5029433;28;20032;-49
2022/03/22 08:18:53;;;;;;;23.75;15.10;;;8.10;84.20;;;;;;5032342;28;20398;-51
2022/03/22 08:21:19;;;;;;;26.73;15.27;;;8.30;84.80;;;;;;5031065;28;20079;-52
2022/03/22 08:23:44;;;;;;;24.40;15.07;;;8.40;84.00;;;;;;5035421;28;20029;-50
2022/03/22 08:26:10;;;;;;;24.48;14.15;;;8.50;83.70;;;;;;5029808;28;20021;-50
2022/03/22 08:28:36;;;;;;;34.70;15.52;;;8.70;83.30;;;;;;5028814;28;20025;-49
2022/03/22 08:31:02;;;;;;;27.25;15.50;;;8.80;84.00;;;;;;5030875;28;20040;-51
2022/03/22 08:33:28;;;;;;;25.75;13.98;;;8.90;82.60;;;;;;5029315;28;20031;-51
2022/03/22 08:35:53;;;;;;;24.67;15.38;;;9.10;81.70;;;;;;5032338;28;20029;-53
2022/03/22 08:38:20;;;;;;;19.35;13.10;;;9.20;81.30;;;;;;5030147;28;20686;-52
2022/03/22 08:40:47;;;;;;;19.40;13.20;;;9.30;79.60;;;;;;5032728;28;20472;-53
2022/03/22 08:43:13;;;;;;;28.13;14.63;;;9.40;76.00;;;;;;5032589;28;20057;-53
2022/03/22 08:45:39;;;;;;;21.10;13.95;;;9.50;78.40;;;;;;5030793;28;20053;-53
2022/03/22 08:48:09;;;;;;;;;;;9.70;78.90;;;;;;5028650;28;20034;-52
2022/03/22 08:50:36;;;;;;;25.80;12.77;;;9.80;78.60;;;;;;5029636;28;19917;-52
2022/03/22 08:53:02;;;;;;;24.65;14.05;;;9.90;77.20;;;;;;5029073;28;20120;-47
2022/03/22 08:55:29;;;;;;;24.65;13.55;;;10.00;76.00;;;;;;5033385;28;20017;-48
2022/03/22 08:57:55;;;;;;;21.60;13.70;;;10.20;74.80;;;;;;5028960;28;20500;-50
2022/03/22 09:00:22;;;;;;;22.77;13.77;;;10.30;73.90;;;;;;5030007;28;20491;-49
2022/03/22 09:02:49;;;;;;;25.60;14.98;;;10.50;69.70;;;;;;5030202;28;20044;-51
2022/03/22 09:08:01;;;;;;;20.42;13.15;;;10.70;67.70;;;;;;5037542;28;20036;-53
2022/03/22 09:10:28;;;;;;;20.38;13.27;;;10.90;67.00;;;;;;5040033;28;20454;-52
2022/03/22 09:12:55;;;;;;;20.88;12.90;;;11.00;66.00;;;;;;5034475;28;20029;-50
2022/03/22 09:15:22;;;;;;;22.15;12.75;;;11.00;67.40;;;;;;5037259;28;20512;-54
2022/03/22 09:17:49;;;;;;;22.70;13.77;;;11.20;65.90;;;;;;5036636;28;20061;-52
2022/03/22 09:20:15;;;;;;;17.13;11.82;;;11.30;65.70;;;;;;5035401;28;20042;-52
2022/03/22 09:22:43;;;;;;;19.00;11.50;;;11.40;63.40;;;;;;5032138;28;20038;-48
2022/03/22 09:25:12;;;;;;;20.85;12.68;;;11.60;64.30;;;;;;5030010;28;20056;-49
2022/03/22 09:27:41;;;;;;;21.27;14.15;;;11.60;61.70;;;;;;5034576;28;20028;-57
2022/03/22 09:30:07;;;;;;;21.45;14.43;;;11.70;62.60;;;;;;5031851;28;20056;-52
2022/03/22 09:32:35;;;;;;;18.50;12.73;;;11.80;61.90;;;;;;5026961;28;20033;-54
2022/03/22 09:35:01;;;;;;;17.92;12.60;;;11.90;57.10;;;;;;5037865;28;20403;-54
2022/03/22 09:37:27;;;;;;;;;;;12.00;57.60;;;;;;5028341;28;20479;-51
2022/03/22 09:39:53;;;;;;;21.13;12.67;;;12.10;58.50;;;;;;5014783;28;19909;-49
2022/03/22 09:42:19;;;;;;;18.13;11.85;;;12.20;57.70;;;;;;5028688;28;20345;-54
2022/03/22 09:44:51;;;;;;;19.33;14.68;;;12.30;55.70;;;;;;5045040;28;20045;-50
2022/03/22 09:47:16;;;;;;;18.52;12.40;;;12.50;55.20;;;;;;5027530;28;20475;-54
2022/03/22 09:49:42;;;;;;;;;;;12.70;55.60;;;;;;5028867;28;20083;-51
2022/03/22 09:52:09;;;;;;;25.35;13.25;;;12.80;55.30;;;;;;5025834;28;19909;-50
2022/03/22 09:54:35;;;;;;;20.75;14.13;;;12.80;55.00;;;;;;5027645;28;20513;-51
2022/03/22 09:57:04;;;;;;;;;;;13.00;53.90;;;;;;5031432;28;20061;-55
2022/03/22 09:59:31;;;;;;;19.08;13.60;;;13.10;53.70;;;;;;5032616;28;20362;-51
2022/03/22 10:02:00;;;;;;;20.17;11.95;;;13.10;52.80;;;;;;5027261;28;20685;-52
2022/03/22 10:04:39;;;;;;;16.27;12.10;;;13.30;53.50;;;;;;5030000;28;20052;-55
2022/03/22 10:07:06;;;;;;;20.30;13.70;;;13.40;52.00;;;;;;5029964;28;20018;-53
2022/03/22 10:09:39;;;;;;;18.17;12.30;;;13.50;52.00;;;;;;5026897;28;20147;-50
2022/03/22 10:12:07;;;;;;;18.30;12.80;;;13.60;50.70;;;;;;5027148;28;20183;-53
2022/03/22 10:14:41;;;;;;;20.83;14.40;;;13.60;51.00;;;;;;5026032;28;20044;-51
2022/03/22 10:17:20;;;;;;;18.90;13.65;;;13.70;49.10;;;;;;5032434;28;20036;-50
2022/03/22 10:19:50;;;;;;;20.17;13.45;;;13.90;50.70;;;;;;5033694;28;20037;-50
2022/03/22 10:22:22;;;;;;;17.40;13.95;;;14.00;50.30;;;;;;5036723;28;20033;-52
2022/03/22 10:24:51;;;;;;;21.40;13.32;;;14.10;49.50;;;;;;5037277;28;20029;-51
2022/03/22 10:27:31;;;;;;;20.40;15.15;;;14.20;50.70;;;;;;5038486;28;20024;-52
2022/03/22 10:29:58;;;;;;;23.38;13.70;;;14.30;50.10;;;;;;5031855;28;20037;-52
2022/03/22 10:32:44;;;;;;;21.95;14.52;;;14.40;51.20;;;;;;5027174;28;20077;-52
2022/03/22 10:35:10;;;;;;;20.25;15.73;;;14.40;50.40;;;;;;5027274;28;20067;-55
2022/03/22 10:37:37;;;;;;;20.70;14.68;;;14.50;50.90;;;;;;5034342;28;20040;-54
2022/03/22 10:40:04;;;;;;;24.55;14.63;;;14.60;49.10;;;;;;5029206;28;20029;-51
2022/03/22 10:42:32;;;;;;;20.90;14.45;;;14.70;49.20;;;;;;5027887;28;20398;-52
2022/03/22 10:44:58;;;;;;;26.63;15.55;;;14.80;48.70;;;;;;5030529;28;20097;-54
2022/03/22 10:47:27;;;;;;;22.85;14.73;;;14.90;46.10;;;;;;5028128;28;20024;-55
2022/03/22 10:50:06;;;;;;;22.58;12.98;;;15.00;47.40;;;;;;5030960;28;20083;-55
2022/03/22 10:52:33;;;;;;;21.38;13.95;;;15.00;47.00;;;;;;5030264;28;20465;-53
2022/03/22 10:54:59;;;;;;;20.75;14.45;;;15.00;47.10;;;;;;5027895;28;20029;-55
2022/03/22 10:57:32;;;;;;;24.27;13.35;;;15.00;46.00;;;;;;5031494;28;20057;-54
2022/03/22 11:00:02;;;;;;;19.52;11.93;;;15.00;46.40;;;;;;5032082;28;20349;-55
2022/03/22 11:02:33;;;;;;;24.90;14.52;;;15.00;45.80;;;;;;5035567;28;20029;-52
2022/03/22 11:05:00;;;;;;;26.85;20.95;;;15.00;46.70;;;;;;5031730;28;20033;-53
2022/03/22 11:07:27;;;;;;;31.25;19.90;;;15.20;46.50;;;;;;5031320;28;20375;-53
2022/03/22 11:09:53;;;;;;;21.80;15.88;;;15.20;44.30;;;;;;5035460;28;20049;-52
2022/03/22 11:12:19;;;;;;;;;;;15.10;44.20;;;;;;5032041;28;20528;-52
2022/03/22 11:17:56;;;;;;;19.77;14.15;;;15.20;44.90;;;;;;5010965;28;20532;-53
2022/03/22 11:20:24;;;;;;;17.15;13.98;;;15.30;44.50;;;;;;5030575;28;20029;-52
2022/03/22 11:22:52;;;;;;;23.15;16.88;;;15.40;45.10;;;;;;5034607;28;20036;-54
2022/03/22 11:25:22;;;;;;;28.58;20.25;;;15.50;41.30;;;;;;5030822;28;20025;-51
2022/03/22 11:27:57;;;;;;;22.95;15.52;;;15.40;41.30;;;;;;5036083;28;20112;-53
2022/03/22 11:30:23;;;;;;;23.52;15.18;;;15.40;41.50;;;;;;5039253;28;20425;-55
2022/03/22 11:35:48;;;;;;;24.25;17.50;;;15.40;42.70;;;;;;5023322;28;20041;-52
2022/03/22 11:38:39;;;;;;;20.90;15.30;;;15.70;43.50;;;;;;5040069;28;20037;-53
2022/03/22 11:43:49;;;;;;;18.90;13.43;;;15.90;42.40;;;;;;5033144;28;20514;-51
2022/03/22 11:46:14;;;;;;;;;;;16.00;39.20;;;;;;5033157;28;20025;-53
2022/03/22 11:48:40;;;;;;;16.58;12.63;;;16.00;41.40;;;;;;5034705;28;19908;-51
2022/03/22 11:51:06;;;;;;;;;;;16.10;41.20;;;;;;5033457;28;20021;-53
2022/03/22 11:53:44;;;;;;;20.77;13.25;;;16.10;41.10;;;;;;5030917;28;19905;-52
2022/03/22 11:56:11;;;;;;;20.35;12.82;;;16.00;39.70;;;;;;5034374;28;21026;-55
2022/03/22 11:58:47;;;;;;;17.05;12.60;;;16.20;41.50;;;;;;5029997;28;20025;-54
2022/03/22 12:01:16;;;;;;;18.88;15.32;;;16.30;40.80;;;;;;5029803;28;20041;-55
2022/03/22 12:03:51;;;;;;;20.65;13.73;;;16.40;40.10;;;;;;5029196;28;20056;-53
2022/03/22 12:06:17;;;;;;;19.87;13.57;;;16.40;40.20;;;;;;5032340;28;20029;-53
2022/03/22 12:08:43;;;;;;;;;;;16.50;40.20;;;;;;5036975;28;20285;-52
2022/03/22 12:11:13;;;;;;;21.40;14.43;;;16.50;40.30;;;;;;5031455;28;20385;-51
2022/03/22 12:13:49;;;;;;;17.63;13.05;;;16.40;40.50;;;;;;5034512;28;20037;-53
2022/03/22 12:16:15;;;;;;;20.88;14.25;;;16.40;40.90;;;;;;5036469;28;20080;-51
2022/03/22 12:18:41;;;;;;;20.67;15.25;;;16.40;41.60;;;;;;5031804;28;20029;-51
2022/03/22 12:21:21;;;;;;;17.50;13.68;;;16.50;41.20;;;;;;5027900;28;20030;-53
2022/03/22 12:23:47;;;;;;;19.55;14.45;;;16.70;41.50;;;;;;5031987;28;20025;-51
2022/03/22 12:26:13;;;;;;;17.02;13.05;;;16.80;39.80;;;;;;5029651;28;20031;-51
2022/03/22 12:28:49;;;;;;;17.27;12.63;;;16.80;40.40;;;;;;5028929;28;20025;-52
2022/03/22 12:31:15;;;;;;;19.88;14.30;;;16.90;39.60;;;;;;5028971;28;20079;-52
2022/03/22 12:33:42;;;;;;;32.08;21.95;;;16.90;37.60;;;;;;5028727;28;20434;-55
2022/03/22 12:36:08;;;;;;;21.17;15.63;;;16.70;37.60;;;;;;5030477;28;20214;-50
2022/03/22 12:38:33;;;;;;;19.25;15.35;;;16.50;38.20;;;;;;5031191;28;20095;-55
2022/03/22 12:40:59;;;;;;;16.85;12.73;;;16.40;37.60;;;;;;5032039;28;20497;-52
2022/03/22 12:43:25;;;;;;;20.75;14.85;;;16.40;41.20;;;;;;5032353;28;20029;-53
2022/03/22 12:45:51;;;;;;;25.58;14.85;;;16.60;40.30;;;;;;5030174;28;20022;-53
2022/03/22 12:48:18;;;;;;;19.38;14.75;;;16.70;40.10;;;;;;5029875;28;20425;-55
2022/03/22 12:50:44;;;;;;;17.55;13.65;;;16.90;39.60;;;;;;5036402;28;20047;-52
2022/03/22 12:53:10;;;;;;;17.85;13.30;;;17.00;39.00;;;;;;5037746;28;20393;-54
2022/03/22 12:55:40;;;;;;;21.83;12.80;;;17.00;38.20;;;;;;5029997;28;20108;-54
2022/03/22 12:58:06;;;;;;;19.70;14.93;;;17.00;38.30;;;;;;5036585;28;20037;-52
2022/03/22 13:00:40;;;;;;;21.45;15.20;;;17.00;39.20;;;;;;5054562;22;20045;-58
2022/03/22 13:03:11;;;;;;;22.55;14.00;;;16.90;37.70;;;;;;5023836;28;20033;-55
2022/03/22 13:05:40;;;;;;;25.90;17.58;;;16.90;38.10;;;;;;5025220;28;20018;-55
2022/03/22 13:08:12;;;;;;;20.70;16.08;;;17.00;39.00;;;;;;5024404;28;20037;-56
2022/03/22 13:13:22;;;;;;;17.65;14.93;;;17.00;39.30;;;;;;5024096;28;20544;-55
2022/03/22 13:15:52;;;;;;;17.85;14.00;;;17.00;38.70;;;;;;5026085;28;20029;-55
2022/03/22 13:18:19;;;;;;;16.13;11.30;;;17.20;37.40;;;;;;5023820;28;20307;-57
2022/03/22 13:20:44;;;;;;;14.10;10.30;;;17.30;38.60;;;;;;5018061;28;20033;-57